Time;durP1;ratioP1;P1;durP2;ratioP2;P2;SDS_P1;SDS_P2;PMS_P1;PMS_P2;Temp;Humidity;BMP_temperature;BMP_pressure;BME280_temperature;BME280_humidity;BME280_pressure;Samples;Min_cycle;Max_cycle;Signal;HPM_P1;HPM_P2
2022/01/12 00:01:42;;;;;;;2.47;2.28;;;2.30;86.50;;;1.64;100.00;100944.91;5016070;28;20641;-67
2022/01/12 00:04:09;;;;;;;2.65;2.22;;;2.20;86.70;;;1.46;100.00;100907.81;5033596;28;20538;-67
2022/01/12 00:06:34;;;;;;;3.63;2.50;;;2.10;86.90;;;1.42;100.00;100901.03;5032119;28;20228;-67
2022/01/12 00:09:05;;;;;;;2.50;2.15;;;2.10;87.50;;;1.48;100.00;100925.59;5033964;28;20224;-67
2022/01/12 00:11:33;;;;;;;3.20;2.55;;;2.10;87.80;;;1.48;100.00;100933.22;5032587;28;20200;-67
2022/01/12 00:13:59;;;;;;;3.45;2.08;;;2.00;87.90;;;1.36;100.00;100941.81;5016260;28;20188;-67
2022/01/12 00:16:25;;;;;;;3.10;2.80;;;1.90;88.20;;;1.29;100.00;100919.84;5033584;28;20195;-67
2022/01/12 00:18:51;;;;;;;2.92;1.98;;;1.90;88.70;;;1.36;100.00;100943.50;5032236;28;20192;-67
2022/01/12 00:21:17;;;;;;;2.80;2.35;;;1.90;89.00;;;1.35;100.00;100940.13;5032810;28;20199;-67
2022/01/12 00:23:43;;;;;;;2.28;2.08;;;1.90;89.30;;;1.33;100.00;100935.88;5015953;28;20210;-67
2022/01/12 00:26:12;;;;;;;3.30;2.53;;;1.90;89.60;;;1.24;100.00;100919.03;4999799;28;20206;-67
2022/01/12 00:34:10;;;;;;;2.47;2.20;;;1.80;89.80;;;0.92;100.00;100878.66;5018840;28;20249;-67
2022/01/12 00:36:36;;;;;;;3.45;2.70;;;1.80;90.00;;;1.24;100.00;100939.38;4999490;28;20180;-67
2022/01/12 00:39:05;;;;;;;2.80;2.22;;;1.70;90.00;;;1.05;100.00;100903.13;5015850;28;20206;-67
2022/01/12 00:41:32;;;;;;;2.15;1.85;;;1.70;90.00;;;1.31;100.00;100947.81;5037466;28;20192;-68
2022/01/12 00:43:59;;;;;;;3.33;2.17;;;1.70;90.00;;;1.31;100.00;100937.63;5019934;28;20184;-67
2022/01/12 00:46:30;;;;;;;2.25;2.03;;;1.70;90.10;;;1.07;100.00;100908.19;5036169;28;20184;-67
2022/01/12 00:48:58;;;;;;;2.35;2.10;;;1.70;90.20;;;1.31;100.00;100950.34;5019650;28;20255;-67
2022/01/12 00:51:30;;;;;;;2.72;2.17;;;1.70;90.30;;;1.17;100.00;100939.44;5035913;28;20191;-67
2022/01/12 00:53:56;;;;;;;2.38;2.03;;;1.70;90.30;;;0.75;100.00;100880.50;5036157;28;20719;-67
2022/01/12 00:56:22;;;;;;;2.95;2.72;;;1.70;90.30;;;1.04;100.00;100928.53;5019552;28;20184;-67
2022/01/12 00:58:48;;;;;;;3.53;2.28;;;1.60;90.20;;;1.14;100.00;100941.16;5035911;28;20188;-67
2022/01/12 01:01:14;;;;;;;3.22;2.67;;;1.60;90.20;;;0.86;100.00;100908.38;5035716;28;20192;-67
2022/01/12 01:03:40;;;;;;;3.63;2.80;;;1.60;90.10;;;1.07;100.00;100943.78;5019175;28;20637;-67
2022/01/12 01:06:11;;;;;;;2.63;2.10;;;1.60;90.30;;;1.09;100.00;100952.22;5036836;28;20281;-66
2022/01/12 01:08:37;;;;;;;2.65;1.90;;;1.60;90.50;;;0.99;100.00;100950.63;5036611;28;20219;-67
2022/01/12 01:11:04;;;;;;;2.55;2.35;;;1.60;90.60;;;0.89;100.00;100954.09;5035652;28;20189;-67
2022/01/12 01:13:44;;;;;;;3.95;2.42;;;1.40;90.70;;;0.82;100.00;100935.50;5035347;28;20180;-67
2022/01/12 01:16:25;;;;;;;2.80;2.50;;;1.40;90.90;;;0.61;100.00;100895.84;5021336;28;20192;-67
2022/01/12 01:27:06;;;;;;;3.50;2.45;;;1.30;91.50;;;0.73;100.00;100948.28;5036408;28;20191;-67
2022/01/12 01:29:32;;;;;;;3.37;2.53;;;1.30;91.90;;;0.70;100.00;100955.91;5035303;28;20246;-66
2022/01/12 01:31:58;;;;;;;3.58;2.92;;;1.20;91.70;;;0.60;100.00;100941.56;5031719;28;20193;-66
2022/01/12 01:34:26;;;;;;;2.60;2.40;;;1.20;91.90;;;0.65;100.00;100950.03;4999229;28;20196;-66
2022/01/12 01:36:53;;;;;;;2.63;2.33;;;1.20;91.90;;;0.67;100.00;100946.59;5048180;28;20564;-67
2022/01/12 01:39:21;;;;;;;2.90;2.25;;;1.20;91.90;;;0.69;100.00;100938.97;5015787;28;20288;-66
2022/01/12 01:42:00;;;;;;;3.07;2.53;;;1.20;91.90;;;0.64;100.00;100938.19;5015109;28;20181;-67
2022/01/12 01:55:18;;;;;;;2.72;2.47;;;1.10;91.90;;;0.72;100.00;100952.50;5015138;28;20279;-67
2022/01/12 01:57:44;;;;;;;3.67;2.22;;;1.00;92.00;;;0.55;100.00;100920.47;5014979;28;20589;-67
2022/01/12 02:00:14;;;;;;;4.47;2.70;;;1.00;92.10;;;0.68;100.00;100965.22;5015122;28;20212;-66
2022/01/12 02:02:40;;;;;;;2.22;1.98;;;1.00;92.10;;;0.52;100.00;100958.56;5023287;28;20275;-66
2022/01/12 02:05:06;;;;;;;3.00;2.55;;;1.00;92.10;;;0.55;100.00;100969.56;5035651;28;20330;-66
2022/01/12 02:07:33;;;;;;;1.98;1.77;;;1.00;92.00;;;0.60;100.00;100975.44;5034326;28;20236;-67
2022/01/12 02:09:59;;;;;;;2.35;1.80;;;1.00;92.00;;;0.67;100.00;100984.69;5002007;28;20184;-67
2022/01/12 02:12:28;;;;;;;3.90;2.60;;;1.00;91.90;;;0.41;100.00;100929.88;5034565;28;20212;-66
2022/01/12 02:15:00;;;;;;;2.90;2.58;;;1.00;91.90;;;0.71;100.00;100985.53;5034431;28;20184;-66
2022/01/12 02:17:31;;;;;;;3.33;2.05;;;1.00;91.90;;;0.74;100.00;100985.53;5035594;28;20191;-66
2022/01/12 02:20:28;;;;;;;3.05;2.38;;;1.10;91.80;;;0.76;100.00;100973.63;5020171;28;20220;-66
2022/01/12 02:36:58;;;;;;;3.00;2.30;;;0.90;91.40;;;0.50;100.00;100955.19;5020125;28;20659;-66
2022/01/12 02:42:29;;;;;;;2.73;2.07;;;0.90;91.70;;;0.55;100.00;100953.47;4990940;28;20196;-66
2022/01/12 02:56:21;;;;;;;2.13;1.92;;;0.80;91.80;;;0.26;100.00;100951.09;5000154;28;20204;-66
2022/01/12 02:58:48;;;;;;;2.03;1.83;;;0.70;91.90;;;0.25;100.00;100947.69;5018115;28;20199;-66
2022/01/12 03:03:52;;;;;;;3.35;2.03;;;0.70;92.30;;;0.42;100.00;100973.00;5018658;28;20230;-66
2022/01/12 03:06:21;;;;;;;3.22;2.60;;;0.70;92.30;;;0.39;100.00;100962.88;5033109;28;20255;-66
2022/01/12 03:08:48;;;;;;;3.05;2.67;;;0.70;92.30;;;0.49;100.00;100969.59;5033737;28;20667;-66
2022/01/12 03:11:17;;;;;;;2.60;2.15;;;0.80;92.30;;;0.49;100.00;100968.75;5034644;28;20188;-66
2022/01/12 03:13:43;;;;;;;3.60;2.58;;;0.80;91.90;;;0.26;100.00;100953.63;5033103;28;20191;-66
2022/01/12 03:16:17;;;;;;;2.30;2.08;;;0.80;91.60;;;-0.19;100.00;100876.06;5033321;28;20196;-66
2022/01/12 03:18:54;;;;;;;2.17;1.97;;;0.70;91.50;;;0.25;100.00;100960.41;5017930;28;20188;-66
2022/01/12 03:21:23;;;;;;;3.05;2.67;;;0.70;91.60;;;0.13;100.00;100965.53;5018032;28;20193;-66
2022/01/12 03:23:50;;;;;;;2.30;1.90;;;0.70;91.70;;;0.28;100.00;100983.22;5017068;28;20718;-66
2022/01/12 03:26:16;;;;;;;2.50;1.90;;;0.70;91.90;;;0.13;100.00;100983.31;5033020;28;20550;-66
2022/01/12 03:28:42;;;;;;;2.83;2.15;;;0.60;91.80;;;0.30;100.00;100984.09;5034194;28;20219;-66
2022/01/12 03:38:50;;;;;;;2.72;2.20;;;0.60;91.80;;;0.11;100.00;100982.47;5017797;28;20195;-66
2022/01/12 03:41:17;;;;;;;4.23;2.70;;;0.60;91.70;;;-0.23;100.00;100928.47;5032924;28;20196;-66
2022/01/12 03:43:43;;;;;;;3.03;2.57;;;0.60;91.70;;;-0.02;100.00;100965.63;5016589;28;20185;-66
2022/01/12 03:46:09;;;;;;;1.63;1.53;;;0.50;91.70;;;-0.18;100.00;100931.84;5016470;28;20180;-66
2022/01/12 03:48:35;;;;;;;3.37;2.80;;;0.60;91.80;;;0.04;100.00;100979.97;5016360;28;20231;-66
2022/01/12 03:51:01;;;;;;;2.77;2.23;;;0.50;91.90;;;0.24;100.00;100999.34;5032718;28;20553;-66
2022/01/12 03:53:27;;;;;;;2.93;2.63;;;0.60;92.10;;;-0.09;100.00;100949.56;5032687;28;20238;-66
2022/01/12 03:55:53;;;;;;;2.28;2.08;;;0.70;92.30;;;0.14;100.00;101005.31;5016830;28;20662;-66
2022/01/12 03:58:18;;;;;;;2.33;1.73;;;0.60;91.80;;;-0.20;100.00;100961.44;5032913;28;20188;-66
2022/01/12 04:00:44;;;;;;;2.53;2.13;;;0.60;92.00;;;0.21;100.00;101009.50;5016461;28;20634;-66
2022/01/12 04:03:12;;;;;;;3.07;2.30;;;0.60;91.60;;;0.20;100.00;101015.41;5015843;28;20188;-66
2022/01/12 04:08:21;;;;;;;2.83;2.23;;;0.60;91.20;;;-0.14;100.00;100998.63;5032276;28;20580;-66
2022/01/12 04:10:53;;;;;;;2.20;2.00;;;0.50;91.10;;;-0.28;100.00;100968.22;5018193;28;20240;-66
2022/01/12 04:13:22;;;;;;;2.63;2.27;;;0.40;91.30;;;-0.42;100.00;100952.22;5032234;28;20234;-66
2022/01/12 04:15:51;;;;;;;2.03;1.83;;;0.30;91.40;;;-0.30;100.00;100964.00;5032084;28;20193;-66
2022/01/12 04:18:17;;;;;;;3.80;3.07;;;0.30;91.60;;;-0.19;100.00;101002.88;5032422;28;20194;-66
2022/01/12 04:20:48;;;;;;;2.73;2.33;;;0.30;92.10;;;-0.65;100.00;100926.91;5015818;28;20188;-66
2022/01/12 04:23:18;;;;;;;2.50;2.17;;;0.30;91.90;;;-0.28;100.00;100997.81;5016489;28;20211;-66
2022/01/12 04:25:47;;;;;;;4.13;2.33;;;0.20;91.90;;;-0.38;100.00;100986.84;5016627;28;20545;-66
2022/01/12 04:28:14;;;;;;;2.25;2.05;;;0.20;92.10;;;-0.65;100.00;100947.16;5032090;28;20283;-66
2022/01/12 04:30:40;;;;;;;5.00;2.27;;;0.10;92.10;;;-0.22;100.00;101007.94;5015804;28;20197;-66
2022/01/12 04:33:06;;;;;;;2.17;1.97;;;0.20;92.20;;;-0.36;100.00;100991.91;5015324;28;20200;-65
2022/01/12 04:35:37;;;;;;;1.83;1.70;;;0.20;92.20;;;-0.28;100.00;101013.03;5015743;28;20222;-66
2022/01/12 04:38:04;;;;;;;3.45;2.35;;;0.20;92.30;;;-0.21;100.00;101009.63;5033397;28;20195;-66
2022/01/12 04:40:30;;;;;;;3.40;2.13;;;0.20;92.30;;;-0.27;100.00;100994.44;5015811;28;20188;-66
2022/01/12 04:42:57;;;;;;;3.63;2.67;;;0.20;92.30;;;-0.39;100.00;101006.28;5032164;28;20184;-65
2022/01/12 04:50:26;;;;;;;3.22;2.92;;;0.10;92.50;;;-0.39;100.00;101000.38;5033283;28;20185;-66
2022/01/12 04:52:52;;;;;;;3.90;2.53;;;0.20;92.70;;;-0.72;100.00;100947.19;5015784;28;20188;-65
2022/01/12 04:55:18;;;;;;;4.15;2.95;;;0.20;92.70;;;-0.28;100.00;101033.31;4999357;28;20199;-65
2022/01/12 04:57:44;;;;;;;2.93;2.40;;;0.20;92.70;;;-0.60;100.00;100993.66;5015732;28;20239;-65
2022/01/12 05:00:15;;;;;;;2.50;2.30;;;0.20;92.60;;;-0.38;100.00;101048.53;5031967;28;20187;-66
2022/01/12 05:08:35;;;;;;;3.43;2.67;;;0.20;92.40;;;-0.63;100.00;100985.19;5032037;28;20290;-65
2022/01/12 05:13:48;;;;;;;2.17;1.97;;;0.20;92.30;;;-0.26;100.00;101062.06;5018357;28;20195;-65
2022/01/12 05:16:14;;;;;;;2.93;2.57;;;0.10;92.30;;;-0.37;100.00;101057.00;5031813;28;20700;-65
2022/01/12 05:18:42;;;;;;;2.70;2.40;;;0.10;92.40;;;-0.53;100.00;101018.16;5031572;28;20189;-65
2022/01/12 05:21:08;;;;;;;2.50;2.30;;;0.10;92.40;;;-0.26;100.00;101062.06;5015989;28;20618;-65
2022/01/12 05:23:34;;;;;;;3.57;2.73;;;0.10;92.40;;;-0.23;100.00;101067.13;5031997;28;20192;-65
2022/01/12 05:26:00;;;;;;;3.17;2.53;;;0.20;92.50;;;-0.33;100.00;101075.59;5031957;28;20199;-65
2022/01/12 05:28:27;;;;;;;2.67;2.47;;;0.20;92.30;;;-0.25;100.00;101081.53;5036408;28;20216;-65
2022/01/12 05:30:53;;;;;;;2.37;2.17;;;0.20;92.20;;;-0.31;100.00;101084.03;5018938;28;20192;-65
2022/01/12 05:33:20;;;;;;;3.50;2.97;;;0.20;92.00;;;-0.90;100.00;100991.97;5018736;28;20278;-65
2022/01/12 05:35:46;;;;;;;4.97;2.50;;;0.20;91.90;;;-0.36;100.00;101071.38;5035234;28;20664;-65
2022/01/12 05:38:13;;;;;;;3.77;2.33;;;0.10;91.90;;;-0.66;100.00;101034.19;5036480;28;20361;-65
2022/01/12 05:40:40;;;;;;;;;;;0.00;91.90;;;-0.56;100.00;101061.22;5019292;28;20284;-66
2022/01/12 05:43:06;;;;;;;;;;;0.00;91.90;;;-0.47;100.00;101062.91;5035588;28;19940;-66
2022/01/12 05:45:33;;;;;;;;;;;0.00;92.00;;;-0.52;100.00;101059.56;5035521;28;19959;-66
2022/01/12 05:50:25;;;;;;;;;;;-0.10;92.10;;;-0.39;100.00;101087.44;5018865;28;20015;-66
2022/01/12 05:52:51;;;;;;;;;;;0.00;92.20;;;-0.41;100.00;101088.25;5035321;28;19917;-66
2022/01/12 05:55:17;;;;;;;;;;;0.00;92.00;;;-0.71;100.00;101057.84;5035215;28;19921;-66
2022/01/12 05:57:43;;;;;;;;;;;0.00;91.90;;;-0.47;100.00;101095.88;5036421;28;19964;-66
2022/01/12 06:00:11;;;;;;;;;;;-0.10;91.90;;;-0.58;100.00;101072.22;5035207;28;19917;-66
2022/01/12 06:02:36;;;;;;;;;;;-0.10;92.00;;;-0.50;100.00;101119.56;5018471;28;19920;-65
2022/01/12 06:05:03;;;;;;;;;;;-0.10;92.00;;;-0.49;100.00;101111.09;5034899;28;19921;-66
2022/01/12 06:07:28;;;;;;;;;;;-0.10;91.90;;;-0.57;100.00;101112.78;5018220;28;19920;-66
2022/01/12 06:09:54;;;;;;;;;;;-0.10;91.80;;;-0.62;100.00;101111.09;5036251;28;20384;-66
2022/01/12 06:12:20;;;;;;;;;;;-0.10;91.80;;;-0.58;100.00;101118.72;5036255;28;19917;-66
2022/01/12 06:14:46;;;;;;;;;;;-0.20;91.90;;;-0.61;100.00;101116.16;5036437;28;19917;-66
2022/01/12 06:17:12;;;;;;;;;;;-0.20;92.00;;;-0.55;100.00;101116.16;5035943;28;19929;-66
2022/01/12 06:19:38;;;;;;;;;;;-0.20;92.40;;;-0.80;100.00;101084.03;5035127;28;19921;-66
2022/01/12 06:22:04;;;;;;;;;;;-0.30;92.10;;;-1.12;100.00;101035.84;5036066;28;19917;-66
2022/01/12 06:24:30;;;;;;;;;;;-0.30;92.10;;;-0.80;100.00;101089.09;5018414;28;19920;-66
2022/01/12 06:26:56;;;;;;;;;;;-0.30;92.20;;;-0.58;100.00;101105.19;5034841;28;20293;-65
2022/01/12 06:31:51;;;;;;;;;;;-0.20;92.20;;;-0.56;100.00;101093.34;5034607;28;19979;-65
2022/01/12 06:34:17;;;;;;;;;;;-0.20;92.10;;;-0.71;100.00;101088.25;5034693;28;19921;-65
2022/01/12 06:36:43;;;;;;;;;;;-0.20;92.00;;;-0.77;100.00;101089.09;5035713;28;20300;-65
2022/01/12 06:39:12;;;;;;;8.32;6.10;;;-0.20;91.90;;;-0.91;100.00;101052.78;5032905;28;20417;-65
2022/01/12 06:41:39;;;;;;;4.50;3.87;;;-0.30;91.90;;;-0.67;100.00;101085.75;5035145;28;20200;-65
2022/01/12 06:44:06;;;;;;;3.07;2.77;;;-0.20;92.00;;;-0.91;100.00;101055.31;5017728;28;20271;-65
2022/01/12 06:46:34;;;;;;;3.23;2.90;;;-0.20;92.20;;;-1.10;100.00;101036.69;5035268;28;20184;-65
2022/01/12 06:49:00;;;;;;;2.70;2.40;;;-0.20;92.10;;;-1.09;100.00;101060.34;5017268;28;20303;-64
2022/01/12 06:51:26;;;;;;;2.70;2.37;;;-0.30;92.20;;;-0.83;100.00;101099.25;5033220;28;20188;-65
2022/01/12 06:53:55;;;;;;;2.50;2.30;;;-0.30;92.30;;;-0.88;100.00;101091.63;5034746;28;20188;-64
2022/01/12 06:56:21;;;;;;;2.53;2.27;;;-0.30;92.60;;;-0.81;100.00;101105.13;5034310;28;20280;-65
2022/01/12 06:58:47;;;;;;;3.47;2.50;;;-0.30;92.70;;;-0.83;100.00;101104.31;5033963;28;20641;-65
2022/01/12 07:01:14;;;;;;;4.03;2.90;;;-0.30;92.80;;;-0.98;100.00;101094.13;5032932;28;20200;-64
2022/01/12 07:03:39;;;;;;;3.60;3.00;;;-0.30;92.90;;;-0.84;100.00;101100.09;5016808;28;20707;-65
2022/01/12 07:06:05;;;;;;;6.23;2.70;;;-0.40;93.00;;;-0.92;100.00;101089.94;5015921;28;20236;-64
2022/01/12 07:08:34;;;;;;;3.00;2.77;;;-0.30;93.30;;;-1.37;100.00;101017.22;5016398;28;20293;-65
2022/01/12 07:11:00;;;;;;;3.10;2.80;;;-0.30;93.30;;;-0.77;100.00;101104.31;5033991;28;20196;-64
2022/01/12 07:13:26;;;;;;;2.60;2.40;;;-0.30;93.40;;;-0.70;100.00;101115.28;5032769;28;20195;-65
2022/01/12 07:15:52;;;;;;;2.73;2.17;;;-0.30;93.40;;;-0.82;100.00;101098.38;5033880;28;20649;-65
2022/01/12 07:18:21;;;;;;;2.93;2.47;;;-0.30;93.40;;;-0.88;100.00;101091.63;5016211;28;20246;-65
2022/01/12 07:20:48;;;;;;;2.60;2.37;;;-0.30;93.50;;;-1.01;100.00;101081.47;5034061;28;20194;-73
2022/01/12 07:23:14;;;;;;;2.50;2.30;;;-0.30;93.60;;;-0.82;100.00;101108.50;5033496;28;20188;-74
2022/01/12 07:25:39;;;;;;;3.53;3.10;;;-0.30;93.60;;;-0.70;100.00;101120.38;5032676;28;20553;-74
2022/01/12 07:28:05;;;;;;;2.63;2.43;;;-0.30;93.70;;;-0.67;100.00;101130.53;5033636;28;20665;-73
2022/01/12 07:30:31;;;;;;;3.17;2.87;;;-0.20;93.70;;;-0.77;100.00;101104.31;4999856;28;20196;-73
2022/01/12 07:32:57;;;;;;;4.90;3.13;;;-0.20;93.50;;;-0.55;100.00;101135.59;5032238;28;20192;-70
2022/01/12 07:35:23;;;;;;;3.13;2.73;;;-0.20;93.30;;;-0.47;100.00;101151.66;5033686;28;20199;-73
2022/01/12 07:37:49;;;;;;;4.60;3.27;;;-0.10;93.30;;;-0.62;100.00;101122.06;5016172;28;20207;-77
2022/01/12 07:40:15;;;;;;;3.70;3.30;;;0.00;93.40;;;-0.39;100.00;101163.50;5033356;28;20192;-76
2022/01/12 07:42:41;;;;;;;3.30;2.87;;;0.00;93.50;;;-0.21;100.00;101182.09;5032428;28;20545;-75
2022/01/12 07:45:07;;;;;;;3.87;3.00;;;0.10;93.60;;;-0.18;100.00;101177.06;5032303;28;20661;-78
2022/01/12 07:47:33;;;;;;;4.10;3.40;;;0.20;93.80;;;-0.13;100.00;101172.81;5015687;28;20539;-75
2022/01/12 07:49:59;;;;;;;4.33;3.07;;;0.30;93.70;;;0.13;100.00;101199.03;5031490;28;20219;-72
2022/01/12 07:52:26;;;;;;;3.40;2.90;;;0.50;93.60;;;0.22;100.00;101213.41;5032220;28;20180;-73
2022/01/12 07:54:52;;;;;;;3.47;2.70;;;0.50;93.30;;;0.28;100.00;101213.38;5015915;28;20203;-72
2022/01/12 07:57:18;;;;;;;3.63;3.33;;;0.60;93.10;;;0.35;100.00;101223.53;5015541;28;20315;-74
2022/01/12 07:59:44;;;;;;;4.70;3.40;;;0.70;93.20;;;0.46;100.00;101217.59;5015873;28;20668;-75
2022/01/12 08:02:11;;;;;;;6.07;5.00;;;0.80;93.20;;;0.20;100.00;101155.03;5029601;28;20428;-72
2022/01/12 08:04:38;;;;;;;4.47;3.30;;;0.90;93.20;;;0.13;100.00;101143.19;5032535;28;20185;-79
2022/01/12 08:07:04;;;;;;;3.80;3.35;;;1.00;93.00;;;0.29;100.00;101137.22;5031828;28;20231;-76
2022/01/12 08:09:31;;;;;;;3.33;2.70;;;1.10;92.50;;;0.82;100.00;101203.97;5032961;28;20627;-78
2022/01/12 08:11:57;;;;;;;3.92;2.97;;;1.20;92.10;;;0.97;100.00;101217.47;5032154;28;20299;-79
2022/01/12 08:14:23;;;;;;;4.82;3.45;;;1.30;91.90;;;0.85;100.00;101176.84;5015324;28;20212;-75
2022/01/12 08:16:49;;;;;;;3.67;3.05;;;1.50;92.00;;;1.29;100.00;101231.75;5032906;28;20194;-76
2022/01/12 08:19:20;;;;;;;4.35;3.70;;;1.60;91.30;;;1.30;100.00;101238.50;5031526;28;20192;-75
2022/01/12 08:21:46;;;;;;;4.13;3.55;;;1.70;91.00;;;1.30;100.00;101223.25;5032141;28;20184;-76
2022/01/12 08:24:16;;;;;;;4.95;4.18;;;1.70;90.90;;;0.98;100.00;101221.72;5032639;28;20714;-75
2022/01/12 08:26:42;;;;;;;3.55;2.97;;;1.80;91.00;;;1.25;100.00;101213.09;5016207;28;20526;-76
2022/01/12 08:29:14;;;;;;;4.88;3.78;;;1.90;91.00;;;0.91;100.00;101207.31;5031697;28;20235;-79
2022/01/12 08:31:41;;;;;;;4.90;3.60;;;1.70;90.40;;;0.89;100.00;101211.56;5031670;28;20199;-79
2022/01/12 08:34:07;;;;;;;4.15;3.65;;;1.70;90.30;;;1.13;100.00;101221.63;5014941;28;20184;-73
2022/01/12 08:36:33;;;;;;;6.22;4.40;;;1.70;90.20;;;1.06;100.00;101226.75;5015187;28;20219;-78
2022/01/12 08:38:59;;;;;;;4.00;3.45;;;1.70;90.20;;;0.89;100.00;101219.19;5015328;28;20205;-78
2022/01/12 08:41:26;;;;;;;5.78;3.70;;;1.70;90.20;;;0.90;100.00;101212.41;5031543;28;20184;-78
2022/01/12 08:43:52;;;;;;;3.92;2.65;;;1.70;90.30;;;1.38;100.00;101227.47;5033033;28;20334;-74
2022/01/12 08:46:17;;;;;;;4.22;3.50;;;1.90;89.90;;;1.47;100.00;101213.84;5032326;28;20667;-78
2022/01/12 08:48:44;;;;;;;4.30;3.28;;;2.00;89.80;;;1.46;100.00;101181.63;5031692;28;20212;-76
2022/01/12 08:51:09;;;;;;;4.78;3.50;;;2.10;89.70;;;1.04;100.00;101168.28;5031387;28;20614;-79
2022/01/12 08:53:35;;;;;;;4.40;3.50;;;2.00;88.50;;;0.69;100.00;101159.97;5014971;28;20670;-79
2022/01/12 08:56:02;;;;;;;3.97;3.20;;;1.90;88.10;;;0.84;100.00;101208.19;5032494;28;20675;-77
2022/01/12 08:58:28;;;;;;;3.70;3.00;;;1.70;88.00;;;1.15;100.00;101206.38;5031882;28;20188;-79
2022/01/12 09:00:55;;;;;;;4.80;3.67;;;1.70;88.60;;;1.33;100.00;101172.38;5016676;28;20188;-78
2022/01/12 09:03:22;;;;;;;5.05;3.42;;;2.00;89.30;;;1.72;100.00;101196.72;5019109;28;20629;-79
2022/01/12 09:05:49;;;;;;;5.55;3.38;;;2.30;88.80;;;2.08;100.00;101249.03;5034750;28;20359;-75
2022/01/12 09:08:15;;;;;;;4.22;3.83;;;2.50;88.40;;;2.13;100.00;101209.13;5036321;28;20192;-75
2022/01/12 09:10:41;;;;;;;3.95;3.30;;;2.70;88.10;;;2.68;100.00;101251.06;5018978;28;20587;-73
2022/01/12 09:13:07;;;;;;;3.75;3.38;;;2.90;86.70;;;2.90;100.00;101264.41;5036252;28;20191;-76
2022/01/12 09:15:33;;;;;;;4.43;3.70;;;3.20;85.90;;;3.08;100.00;101257.41;5035038;28;20192;-75
2022/01/12 09:17:58;;;;;;;4.63;3.72;;;3.50;85.20;;;3.33;100.00;101259.66;5036176;28;20204;-73
2022/01/12 09:20:25;;;;;;;5.10;3.92;;;3.80;85.10;;;3.32;100.00;101223.97;5034630;28;20188;-74
2022/01/12 09:22:50;;;;;;;5.68;3.97;;;4.00;82.50;;;3.39;98.11;101241.72;5035077;28;20262;-73
2022/01/12 09:25:17;;;;;;;4.75;3.85;;;4.50;80.40;;;3.95;92.62;101249.44;5018093;28;20598;-71
2022/01/12 09:27:43;;;;;;;5.78;3.92;;;4.80;77.00;;;4.56;85.92;101252.66;5018318;28;20232;-71
2022/01/12 09:30:11;;;;;;;4.57;4.10;;;;;;;5.21;84.10;101265.09;5034781;28;20215;-76
2022/01/12 09:32:37;;;;;;;5.07;3.63;;;6.20;74.00;;;5.54;73.99;101264.38;5018472;28;20567;-76
2022/01/12 09:35:04;;;;;;;4.50;4.10;;;6.70;69.00;;;5.14;73.83;101271.19;5018383;28;20188;-70
2022/01/12 09:37:29;;;;;;;5.45;4.10;;;6.60;65.40;;;5.11;79.65;101269.53;5035975;28;20227;-74
2022/01/12 09:39:55;;;;;;;4.82;3.92;;;6.60;65.90;;;6.25;72.04;101279.88;5018151;28;20196;-74
2022/01/12 09:42:21;;;;;;;5.20;4.15;;;7.00;64.90;;;6.69;67.87;101296.72;5035536;28;20180;-72
2022/01/12 09:44:48;;;;;;;6.38;4.00;;;7.40;63.00;;;6.87;65.42;101292.81;5035713;28;20187;-72
2022/01/12 09:47:14;;;;;;;6.65;4.35;;;7.40;61.50;;;6.31;65.92;101250.69;5017717;28;20188;-71
2022/01/12 09:49:45;;;;;;;5.57;4.30;;;7.30;61.20;;;6.23;65.54;101308.97;5017989;28;20208;-71
2022/01/12 09:52:12;;;;;;;4.95;4.22;;;7.10;61.10;;;5.91;67.69;101302.88;5034060;28;20188;-73
2022/01/12 09:54:38;;;;;;;5.90;4.07;;;6.90;62.10;;;5.68;67.30;101308.44;5018328;28;20196;-71
2022/01/12 09:57:05;;;;;;;4.68;3.90;;;6.70;62.20;;;5.59;69.29;101303.56;5035387;28;20195;-69
2022/01/12 09:59:31;;;;;;;5.55;4.53;;;6.50;62.40;;;5.35;70.07;101304.88;5034054;28;20538;-78
2022/01/12 10:01:57;;;;;;;4.97;4.03;;;6.20;62.70;;;5.69;68.37;101271.72;5017738;28;20227;-72
2022/01/12 10:04:26;;;;;;;5.50;3.97;;;6.30;64.30;;;6.65;65.66;101297.69;5033839;28;20191;-70
2022/01/12 10:06:59;;;;;;;6.18;4.20;;;6.60;63.80;;;6.74;64.08;101300.00;5035078;28;20232;-73
2022/01/12 10:09:31;;;;;;;6.20;4.70;;;6.70;63.00;;;7.37;62.35;101301.72;5017482;28;20203;-70
2022/01/12 10:12:01;;;;;;;5.85;4.30;;;7.30;62.80;;;7.67;58.52;101310.25;5033676;28;20165;-72
2022/01/12 10:14:40;;;;;;;5.30;4.20;;;8.20;61.70;;;7.88;58.84;101301.91;5034130;28;20649;-71
2022/01/12 10:17:06;;;;;;;5.75;4.68;;;8.70;58.30;;;7.68;57.35;101301.66;5034135;28;20184;-77
2022/01/12 10:19:33;;;;;;;6.25;4.47;;;8.70;56.20;;;7.15;58.32;101305.78;5034030;28;20243;-75
2022/01/12 10:22:02;;;;;;;5.22;4.72;;;8.50;55.20;;;6.79;59.31;101259.69;5033729;28;20591;-77
2022/01/12 10:24:28;;;;;;;5.32;4.80;;;8.20;56.00;;;6.75;60.97;101277.78;5033425;28;20193;-75
2022/01/12 10:26:55;;;;;;;4.82;4.05;;;7.80;57.10;;;7.21;59.66;101316.72;5035111;28;20631;-72
2022/01/12 10:29:27;;;;;;;6.80;4.60;;;8.10;58.10;;;7.26;57.28;101321.69;5033099;28;20222;-75
2022/01/12 10:31:59;;;;;;;4.55;4.15;;;8.30;57.20;;;6.72;59.57;101317.16;5017765;28;20196;-77
2022/01/12 10:34:42;;;;;;;4.68;3.70;;;8.30;57.50;;;6.59;59.71;101317.53;5033337;28;20200;-75
2022/01/12 10:37:22;;;;;;;4.53;4.00;;;8.20;56.10;;;8.12;55.89;101322.59;5017399;28;20192;-68
2022/01/12 10:39:50;;;;;;;5.22;4.50;;;8.60;56.20;;;8.05;56.51;101324.53;5034908;28;20241;-80
2022/01/12 10:42:25;;;;;;;4.93;4.30;;;8.90;55.90;;;8.39;55.75;101321.78;5033406;28;20216;-73
2022/01/12 10:44:56;;;;;;;4.43;4.03;;;9.20;55.60;;;7.98;56.29;101312.75;5017476;28;20211;-76
2022/01/12 10:47:24;;;;;;;4.28;3.88;;;9.20;54.90;;;8.19;54.01;101272.66;5017520;28;20192;-76
2022/01/12 10:49:59;;;;;;;4.63;3.90;;;9.40;54.40;;;7.93;56.05;101320.59;5000613;28;20579;-75
2022/01/12 10:52:34;;;;;;;4.78;4.30;;;9.50;54.00;;;7.67;55.25;101314.53;5034279;28;20184;-77
2022/01/12 10:55:08;;;;;;;4.53;4.07;;;9.50;53.50;;;6.61;57.06;101319.16;5017692;28;20182;-77
2022/01/12 10:57:39;;;;;;;4.35;3.90;;;9.10;53.00;;;7.33;58.05;101278.75;5034130;28;20279;-74
2022/01/12 11:00:19;;;;;;;4.45;4.05;;;9.10;54.00;;;7.56;56.93;101302.88;5034498;28;20188;-78
2022/01/12 11:02:50;;;;;;;4.70;4.20;;;9.20;54.10;;;7.11;57.29;101271.63;5032951;28;20279;-73
2022/01/12 11:05:17;;;;;;;4.38;3.97;;;9.20;53.40;;;7.45;56.29;101301.50;5000898;28;20188;-74
2022/01/12 11:07:43;;;;;;;4.13;3.72;;;9.50;53.40;;;8.08;55.59;101306.41;5032961;28;20243;-73
2022/01/12 11:10:10;;;;;;;4.72;4.25;;;9.70;52.80;;;8.56;53.12;101256.91;5032800;28;20230;-77
2022/01/12 11:12:36;;;;;;;4.65;4.25;;;10.00;51.20;;;8.80;51.53;101270.66;5032778;28;20195;-69
2022/01/12 11:15:10;;;;;;;4.78;3.75;;;10.30;50.80;;;8.47;52.38;101222.03;5033928;28;20290;-70
2022/01/12 11:17:38;;;;;;;4.28;3.88;;;10.30;49.80;;;8.45;52.99;101301.00;5032940;28;20180;-78
2022/01/12 11:20:17;;;;;;;4.25;3.78;;;10.20;49.80;;;9.32;52.57;101293.66;5016736;28;20195;-73
2022/01/12 11:22:59;;;;;;;4.25;3.85;;;10.30;50.10;;;9.41;48.40;101280.41;5033956;28;20180;-75
2022/01/12 11:25:34;;;;;;;4.40;3.55;;;11.00;49.10;;;8.07;52.28;101237.88;5015120;28;20277;-76
2022/01/12 11:28:08;;;;;;;4.07;3.67;;;10.20;48.20;;;7.79;53.97;101225.09;5033976;28;20199;-77
2022/01/12 11:30:34;;;;;;;4.20;3.80;;;9.80;50.20;;;7.95;53.71;101258.88;5033514;28;20270;-77
2022/01/12 11:33:04;;;;;;;4.30;3.90;;;9.90;51.40;;;8.30;52.87;101248.28;5032672;28;20189;-77
2022/01/12 11:35:33;;;;;;;4.10;3.60;;;10.40;50.10;;;8.48;52.67;101239.16;5032654;28;20729;-75
2022/01/12 11:38:01;;;;;;;4.53;3.70;;;10.50;49.40;;;7.67;54.09;101252.88;5032562;28;20531;-75
2022/01/12 11:40:41;;;;;;;4.85;3.80;;;10.20;48.50;;;8.91;52.34;101242.78;5032186;28;20188;-75
2022/01/12 11:43:29;;;;;;;4.47;3.80;;;10.70;49.70;;;9.48;50.58;101235.50;5032512;28;20192;-75
2022/01/12 11:46:06;;;;;;;4.00;3.60;;;11.40;49.00;;;9.67;49.30;101225.31;5017201;28;20188;-77
2022/01/12 11:48:49;;;;;;;4.85;4.38;;;12.00;48.50;;;9.66;49.22;101223.63;5032010;28;20222;-75
2022/01/12 11:51:31;;;;;;;4.13;3.70;;;12.20;46.10;;;8.75;50.49;101197.00;5017644;28;20188;-76